FNR weather

Funter Bay Seaplane Base
Funter Bay, Alaska, United States

Public forecast

Using degrees Fahrenheit for public forecast. Weather courtesy of forecast.io.

Closest aviation weather report (METAR) to Funter Bay Seaplane Base

Closest report is Juneau International Airport, 11.8 nm (21.9 km) ENE. Retrieved 2020/06/02 00:53 UTC (23 minutes ago):

PAJN 020053Z 12015KT 10SM -RA FEW009 BKN070 OVC085 09/06 A2981

Closest aviation forecast (TAF) to Funter Bay Seaplane Base

Closest forecast is Juneau International Airport, 11.8 nm (21.9 km) ENE. Retrieved 2020-06-02 00:33 UTC (43 minutes ago):

TAF PAJN 012331Z 0200/0224 12015KT 6SM -RA SCT040 OVC050 TEMPO 0200/0204 12015G28KT SCT009 BKN030 OVC050 FM021000 11012KT 6SM -SHRA OVC025